createdAt,value
2023-02-09T00:00:44.871Z,72.01
2023-02-09T00:01:47.200Z,72.65
2023-02-09T00:02:50.322Z,70.57
2023-02-09T00:03:53.540Z,69.99
2023-02-09T00:04:55.731Z,70.15
2023-02-09T00:06:03.190Z,70.12
2023-02-09T00:07:05.403Z,71.12
2023-02-09T00:08:07.329Z,72.19
2023-02-09T00:09:09.393Z,70.49
2023-02-09T00:10:12.401Z,70.49
2023-02-09T00:11:26.833Z,70.91
2023-02-09T00:12:47.174Z,70.62
2023-02-09T00:13:49.393Z,68.99
2023-02-09T00:14:51.614Z,69.59
2023-02-09T00:16:02.090Z,69.49
2023-02-09T00:17:05.332Z,70.11
2023-02-09T00:18:07.551Z,71.06
2023-02-09T00:19:11.706Z,71.27
2023-02-09T00:20:14.412Z,71.16
2023-02-09T00:21:16.632Z,70.78
2023-02-09T00:22:19.401Z,70.71
2023-02-09T00:23:21.448Z,71.49
2023-02-09T00:24:23.865Z,70.54
2023-02-09T00:25:25.999Z,70.57
2023-02-09T00:26:28.357Z,70.18
2023-02-09T00:27:31.783Z,70.83
2023-02-09T00:28:34.209Z,70.26
2023-02-09T00:29:36.343Z,71.37
2023-02-09T00:30:40.801Z,70.41
2023-02-09T00:31:43.593Z,70.81
2023-02-09T00:32:46.893Z,70.73
2023-02-09T00:33:49.936Z,71.27
2023-02-09T00:34:51.952Z,70.87
2023-02-09T00:35:54.965Z,70.69
2023-02-09T00:36:58.352Z,71.41
2023-02-09T00:38:00.534Z,70.87
2023-02-09T00:39:03.507Z,70.85
2023-02-09T00:40:07.301Z,71.00
2023-02-09T00:41:11.218Z,70.89
2023-02-09T00:42:13.204Z,71.02
2023-02-09T00:43:15.179Z,71.22
2023-02-09T00:44:18.324Z,70.98
2023-02-09T00:45:21.006Z,71.02
2023-02-09T00:46:23.745Z,70.99
2023-02-09T00:47:26.070Z,70.85
2023-02-09T00:48:30.377Z,70.79
2023-02-09T00:49:32.779Z,71.02
2023-02-09T00:50:35.960Z,70.90
2023-02-09T00:51:38.093Z,71.68
2023-02-09T00:52:40.385Z,72.67
2023-02-09T00:53:42.401Z,71.77
2023-02-09T00:54:45.165Z,71.34
2023-02-09T00:55:49.563Z,71.71
2023-02-09T00:56:52.242Z,72.29
2023-02-09T00:57:54.477Z,72.33
2023-02-09T00:58:57.553Z,72.17
2023-02-09T01:00:00.721Z,72.49
2023-02-09T01:01:03.973Z,72.49
2023-02-09T01:02:06.574Z,72.83
2023-02-09T01:03:08.886Z,72.48
2023-02-09T01:04:11.504Z,72.17
2023-02-09T01:05:13.886Z,72.43
2023-02-09T01:06:16.419Z,72.71
2023-02-09T01:07:18.887Z,72.94
2023-02-09T01:08:20.961Z,73.79
2023-02-09T01:09:23.488Z,73.19
2023-02-09T01:10:25.785Z,73.14
2023-02-09T01:11:29.580Z,73.08
2023-02-09T01:12:31.808Z,73.75
2023-02-09T01:13:34.376Z,74.12
2023-02-09T01:14:39.023Z,73.80
2023-02-09T01:15:41.195Z,73.66
2023-02-09T01:16:44.291Z,73.15
2023-02-09T01:17:46.767Z,73.67
2023-02-09T01:18:49.359Z,73.66
2023-02-09T01:19:52.771Z,72.33
2023-02-09T01:20:55.222Z,72.30
2023-02-09T01:21:57.644Z,71.50
2023-02-09T01:22:59.648Z,71.99
2023-02-09T01:24:01.780Z,72.08
2023-02-09T01:25:06.055Z,71.91
2023-02-09T01:26:10.263Z,72.44
2023-02-09T01:27:12.226Z,73.23
2023-02-09T01:28:14.563Z,73.47
2023-02-09T01:29:19.190Z,73.01
2023-02-09T01:30:21.546Z,71.23
2023-02-09T01:31:30.251Z,70.87
2023-02-09T01:32:34.304Z,70.66
2023-02-09T01:33:36.683Z,69.88
2023-02-09T01:34:38.876Z,69.38
2023-02-09T01:35:40.923Z,69.27
2023-02-09T01:36:44.173Z,70.34
2023-02-09T01:37:46.566Z,71.47
2023-02-09T01:38:50.514Z,71.44
2023-02-09T01:39:52.622Z,71.93
2023-02-09T01:40:55.022Z,71.80
2023-02-09T01:41:57.347Z,72.16
2023-02-09T01:42:59.719Z,73.49
2023-02-09T01:44:08.123Z,72.78
2023-02-09T01:45:23.431Z,72.24
2023-02-09T01:46:29.263Z,71.65
2023-02-09T01:47:34.646Z,70.39
2023-02-09T01:48:36.894Z,71.36
2023-02-09T01:49:39.066Z,70.55
2023-02-09T01:50:44.565Z,71.61
2023-02-09T01:51:50.587Z,72.65
2023-02-09T01:52:54.815Z,73.09
2023-02-09T01:53:57.786Z,73.36
2023-02-09T01:55:09.865Z,72.85
2023-02-09T01:57:29.103Z,72.77
2023-02-09T01:58:32.694Z,72.66
2023-02-09T01:59:38.124Z,73.14
2023-02-09T02:00:42.971Z,72.42
2023-02-09T02:01:45.851Z,70.91
2023-02-09T02:02:59.350Z,71.49
2023-02-09T02:04:02.495Z,72.04
2023-02-09T02:05:07.691Z,72.81
2023-02-09T02:06:13.652Z,72.38
2023-02-09T02:07:19.607Z,72.08
2023-02-09T02:08:39.956Z,70.58
2023-02-09T02:09:42.699Z,71.13
2023-02-09T02:10:45.790Z,71.18
2023-02-09T02:11:49.668Z,71.64
2023-02-09T02:12:54.028Z,70.67
2023-02-09T02:13:57.182Z,70.69
2023-02-09T02:14:59.282Z,71.07
2023-02-09T02:16:08.235Z,70.41
2023-02-09T02:17:33.960Z,69.66
2023-02-09T02:19:02.504Z,70.04
2023-02-09T02:20:30.029Z,70.82
2023-02-09T02:21:54.048Z,72.46
2023-02-09T02:23:22.253Z,72.11
2023-02-09T02:24:51.085Z,72.23
2023-02-09T02:26:11.668Z,71.64
2023-02-09T02:27:29.820Z,72.17
2023-02-09T02:28:38.640Z,73.13
2023-02-09T02:30:04.078Z,72.75
2023-02-09T02:31:33.239Z,72.17
2023-02-09T02:32:51.294Z,72.84
2023-02-09T02:34:27.295Z,73.67
2023-02-09T02:35:45.167Z,73.16
2023-02-09T02:37:03.133Z,73.48
2023-02-09T02:38:08.965Z,72.85
2023-02-09T02:39:17.536Z,71.70
2023-02-09T02:40:45.664Z,71.70
2023-02-09T02:43:47.695Z,71.43
2023-02-09T02:44:56.436Z,72.67
2023-02-09T02:46:02.585Z,72.34
2023-02-09T02:47:08.631Z,72.33
2023-02-09T02:48:26.905Z,73.90
2023-02-09T02:49:32.878Z,73.58
2023-02-09T02:50:38.793Z,72.94
2023-02-09T02:51:44.457Z,73.65
2023-02-09T02:52:50.855Z,74.59
2023-02-09T02:53:56.554Z,74.66
2023-02-09T02:55:11.531Z,74.23
2023-02-09T02:56:39.076Z,73.88
2023-02-09T02:57:44.776Z,73.49
2023-02-09T02:58:50.561Z,73.71
2023-02-09T02:59:56.675Z,73.12
2023-02-09T03:01:02.337Z,72.48
2023-02-09T03:02:18.662Z,72.78
2023-02-09T03:03:27.324Z,71.92
2023-02-09T03:04:32.182Z,71.88
2023-02-09T03:05:34.662Z,71.21
2023-02-09T03:06:37.825Z,72.28
2023-02-09T03:07:40.825Z,72.72
2023-02-09T03:08:49.803Z,71.57
2023-02-09T03:09:55.704Z,71.47
2023-02-09T03:10:58.621Z,71.79
2023-02-09T03:12:07.084Z,72.52
2023-02-09T03:13:33.541Z,72.61
2023-02-09T03:14:44.972Z,72.24
2023-02-09T03:15:50.734Z,72.51
2023-02-09T03:17:15.133Z,73.10
2023-02-09T03:18:32.609Z,72.37
2023-02-09T03:19:50.255Z,72.94
2023-02-09T03:21:08.190Z,72.28
2023-02-09T03:22:30.993Z,72.96
2023-02-09T03:23:39.479Z,72.41
2023-02-09T03:25:09.691Z,72.79
2023-02-09T03:26:16.195Z,71.85
2023-02-09T03:27:24.855Z,72.92
2023-02-09T03:28:31.815Z,71.98
2023-02-09T03:29:36.954Z,72.21
2023-02-09T03:30:41.784Z,72.90
2023-02-09T03:31:45.868Z,73.30
2023-02-09T03:32:48.403Z,73.53
2023-02-09T03:33:50.907Z,72.20
2023-02-09T03:34:55.028Z,72.49
2023-02-09T03:35:59.869Z,72.84
2023-02-09T03:37:02.206Z,72.97
2023-02-09T03:38:06.109Z,72.25
2023-02-09T03:39:08.354Z,71.99
2023-02-09T03:40:11.018Z,72.51
2023-02-09T03:41:13.090Z,72.05
2023-02-09T03:42:15.433Z,72.02
2023-02-09T03:43:17.466Z,72.42
2023-02-09T03:44:25.881Z,72.72
2023-02-09T03:45:28.158Z,73.75
2023-02-09T03:46:32.413Z,72.81
2023-02-09T03:47:34.667Z,72.91
2023-02-09T03:48:37.165Z,74.03
2023-02-09T03:49:40.896Z,73.99
2023-02-09T03:50:43.827Z,72.99
2023-02-09T03:51:46.500Z,73.62
2023-02-09T03:52:50.170Z,72.70
2023-02-09T03:53:52.524Z,73.16
2023-02-09T03:54:54.648Z,73.95
2023-02-09T03:55:56.599Z,73.84
2023-02-09T03:57:00.928Z,73.32
2023-02-09T03:58:03.794Z,73.25
2023-02-09T03:59:06.299Z,73.20
2023-02-09T04:00:11.572Z,73.88
2023-02-09T04:01:17.336Z,74.38
2023-02-09T04:02:19.601Z,74.77
2023-02-09T04:03:21.702Z,74.23
2023-02-09T04:04:25.205Z,74.15
2023-02-09T04:05:27.551Z,74.21
2023-02-09T04:06:32.644Z,74.19
2023-02-09T04:07:35.207Z,73.70
2023-02-09T04:08:37.789Z,74.00
2023-02-09T04:09:39.927Z,73.37
2023-02-09T04:10:42.249Z,72.02
2023-02-09T04:11:44.617Z,71.84
2023-02-09T04:12:47.730Z,71.43
2023-02-09T04:13:50.046Z,72.11
2023-02-09T04:14:52.070Z,72.68
2023-02-09T04:15:54.382Z,71.95
2023-02-09T04:16:56.661Z,71.77
2023-02-09T04:17:58.883Z,71.33
2023-02-09T04:19:01.173Z,71.56
2023-02-09T04:20:05.182Z,71.67
2023-02-09T04:21:07.580Z,71.83
2023-02-09T04:22:10.181Z,72.07
2023-02-09T04:23:12.684Z,71.79
2023-02-09T04:24:14.873Z,71.42
2023-02-09T04:25:17.298Z,71.41
2023-02-09T04:26:20.866Z,72.44
2023-02-09T04:27:23.035Z,72.71
2023-02-09T04:28:25.039Z,72.98
2023-02-09T04:29:27.494Z,72.69
2023-02-09T04:30:30.838Z,72.77
2023-02-09T04:31:35.022Z,72.93
2023-02-09T04:32:41.573Z,72.86
2023-02-09T04:33:44.891Z,71.97
2023-02-09T04:34:47.954Z,70.99
2023-02-09T04:35:52.126Z,71.77
2023-02-09T04:36:54.312Z,72.70
2023-02-09T04:37:56.956Z,73.18
2023-02-09T04:38:59.038Z,73.32
2023-02-09T04:40:01.639Z,73.13
2023-02-09T04:41:04.705Z,73.92
2023-02-09T04:42:06.658Z,72.62
2023-02-09T04:43:08.503Z,73.30
2023-02-09T04:44:10.585Z,73.88
2023-02-09T04:45:12.822Z,74.24
2023-02-09T04:46:17.427Z,72.50
2023-02-09T04:47:20.088Z,72.53
2023-02-09T04:48:24.099Z,72.46
2023-02-09T04:49:26.344Z,73.52
2023-02-09T04:50:28.602Z,73.42
2023-02-09T04:51:30.803Z,73.68
2023-02-09T04:52:33.302Z,74.09
2023-02-09T04:53:35.502Z,72.76
2023-02-09T04:54:37.368Z,72.11
2023-02-09T04:55:42.470Z,72.83
2023-02-09T04:56:44.732Z,73.12
2023-02-09T04:58:05.103Z,73.75
2023-02-09T04:59:28.266Z,73.17
2023-02-09T05:00:30.849Z,73.60
2023-02-09T05:01:33.298Z,72.95
2023-02-09T05:02:35.734Z,73.39
2023-02-09T05:03:37.612Z,73.67
2023-02-09T05:04:39.719Z,74.11
2023-02-09T05:05:42.472Z,73.95
2023-02-09T05:06:45.120Z,73.05
2023-02-09T05:07:48.013Z,73.76
2023-02-09T05:08:50.253Z,73.66
2023-02-09T05:09:52.529Z,73.63
2023-02-09T05:10:55.689Z,73.27
2023-02-09T05:11:57.768Z,72.43
2023-02-09T05:13:00.248Z,72.22
2023-02-09T05:14:03.625Z,71.90
2023-02-09T05:15:06.725Z,72.17
2023-02-09T05:16:13.539Z,72.45
2023-02-09T05:17:17.493Z,72.82
2023-02-09T05:18:20.044Z,72.05
2023-02-09T05:19:22.344Z,72.24
2023-02-09T05:20:25.771Z,72.53
2023-02-09T05:21:27.963Z,72.69
2023-02-09T05:22:30.061Z,72.80
2023-02-09T05:23:32.347Z,73.22
2023-02-09T05:24:34.459Z,73.26
2023-02-09T05:25:38.794Z,73.63
2023-02-09T05:26:42.421Z,73.49
2023-02-09T05:27:44.502Z,73.89
2023-02-09T05:28:46.355Z,74.06
2023-02-09T05:29:48.305Z,74.28
2023-02-09T05:30:53.158Z,74.25
2023-02-09T05:31:55.446Z,74.36
2023-02-09T05:32:58.805Z,74.35
2023-02-09T05:34:01.496Z,74.79
2023-02-09T05:35:03.571Z,75.06
2023-02-09T05:36:08.571Z,75.08
2023-02-09T05:37:10.917Z,75.41
2023-02-09T05:38:13.454Z,75.50
2023-02-09T05:39:17.079Z,75.40
2023-02-09T05:40:19.468Z,75.74
2023-02-09T05:41:40.192Z,75.79
2023-02-09T05:42:42.874Z,75.87
2023-02-09T05:43:45.089Z,76.25
2023-02-09T05:44:49.687Z,76.05
2023-02-09T05:45:53.203Z,76.32
2023-02-09T05:46:56.067Z,76.05
2023-02-09T05:47:58.180Z,75.60
2023-02-09T05:49:00.437Z,75.58
2023-02-09T05:50:03.488Z,76.26
2023-02-09T05:51:07.014Z,76.72
2023-02-09T05:52:10.695Z,76.14
2023-02-09T05:53:14.428Z,76.26
2023-02-09T05:54:17.785Z,76.44
2023-02-09T05:55:19.792Z,77.04
2023-02-09T05:56:22.261Z,76.35
2023-02-09T05:57:24.335Z,76.37
2023-02-09T05:58:27.267Z,75.51
2023-02-09T05:59:29.859Z,76.10
2023-02-09T06:00:32.048Z,75.98
2023-02-09T06:01:34.993Z,76.08
2023-02-09T06:02:37.259Z,76.40
2023-02-09T06:03:39.543Z,75.69
2023-02-09T06:04:41.777Z,75.83
2023-02-09T06:05:45.303Z,74.51
2023-02-09T06:06:47.922Z,74.71
2023-02-09T06:07:52.167Z,74.10
2023-02-09T06:08:54.313Z,74.61
2023-02-09T06:09:56.381Z,73.33
2023-02-09T06:10:59.318Z,73.95
2023-02-09T06:12:01.630Z,74.53
2023-02-09T06:13:03.757Z,75.29
2023-02-09T06:14:07.194Z,75.32
2023-02-09T06:15:10.379Z,75.99
2023-02-09T06:16:12.786Z,76.08
2023-02-09T06:17:15.365Z,76.17
2023-02-09T06:18:18.455Z,76.64
2023-02-09T06:19:21.057Z,75.57
2023-02-09T06:20:23.284Z,75.91
2023-02-09T06:21:26.575Z,76.74
2023-02-09T06:22:30.323Z,76.41
2023-02-09T06:23:35.147Z,75.71
2023-02-09T06:24:36.859Z,76.54
2023-02-09T06:25:40.192Z,76.77
2023-02-09T06:26:43.181Z,76.76
2023-02-09T06:27:46.286Z,77.02
2023-02-09T06:28:48.556Z,77.26
2023-02-09T06:29:50.753Z,76.21
2023-02-09T06:30:54.008Z,76.06
2023-02-09T06:31:56.543Z,75.46
2023-02-09T06:32:58.663Z,75.07
2023-02-09T06:34:02.983Z,74.54
2023-02-09T06:35:06.256Z,74.22
2023-02-09T06:36:10.029Z,72.89
2023-02-09T06:37:12.307Z,73.05
2023-02-09T06:38:14.421Z,73.55
2023-02-09T06:39:16.308Z,72.87
2023-02-09T06:40:18.545Z,72.87
2023-02-09T06:41:20.784Z,73.59
2023-02-09T06:42:22.752Z,72.37
2023-02-09T06:43:25.195Z,73.26
2023-02-09T06:44:27.513Z,73.72
2023-02-09T06:45:29.734Z,73.68
2023-02-09T06:46:31.928Z,73.78
2023-02-09T06:47:34.948Z,73.12
2023-02-09T06:48:38.533Z,73.12
2023-02-09T06:49:41.684Z,72.14
2023-02-09T06:50:45.044Z,72.26
2023-02-09T06:51:47.760Z,71.64
2023-02-09T06:52:49.934Z,71.81
2023-02-09T06:53:52.174Z,71.79
2023-02-09T06:54:54.967Z,71.16
2023-02-09T06:56:01.071Z,71.43
2023-02-09T06:57:03.542Z,72.20
2023-02-09T06:58:05.861Z,71.96
2023-02-09T06:59:08.403Z,70.59
2023-02-09T07:00:12.649Z,70.61
2023-02-09T07:01:15.838Z,70.70
2023-02-09T07:02:18.354Z,71.03
2023-02-09T07:03:22.318Z,70.28
2023-02-09T07:04:24.703Z,70.75
2023-02-09T07:05:27.998Z,71.85
2023-02-09T07:06:30.786Z,71.94
2023-02-09T07:07:32.915Z,71.43
2023-02-09T07:08:36.231Z,71.13
2023-02-09T07:09:38.358Z,71.43
2023-02-09T07:10:40.887Z,71.63
2023-02-09T07:11:44.335Z,72.23
2023-02-09T07:12:46.507Z,72.20
2023-02-09T07:13:49.320Z,71.81
2023-02-09T07:14:51.945Z,71.95
2023-02-09T07:15:57.133Z,70.94
2023-02-09T07:16:59.898Z,69.54
2023-02-09T07:18:01.893Z,69.67
2023-02-09T07:19:03.939Z,68.85
2023-02-09T07:20:08.632Z,70.04
2023-02-09T07:21:17.388Z,70.18
2023-02-09T07:22:19.583Z,70.31
2023-02-09T07:23:22.475Z,69.89
2023-02-09T07:24:24.843Z,69.89
2023-02-09T07:25:27.745Z,69.78
2023-02-09T07:26:30.439Z,71.16
2023-02-09T07:27:32.902Z,70.61
2023-02-09T07:28:37.153Z,70.90
2023-02-09T07:29:39.290Z,71.27
2023-02-09T07:30:41.550Z,71.67
2023-02-09T07:31:43.891Z,71.74
2023-02-09T07:32:46.685Z,71.25
2023-02-09T07:33:48.789Z,71.80
2023-02-09T07:34:50.854Z,72.91
2023-02-09T07:35:53.090Z,72.91
2023-02-09T07:36:55.478Z,73.40
2023-02-09T07:37:58.608Z,73.76
2023-02-09T07:39:00.997Z,73.23
2023-02-09T07:40:04.237Z,72.33
2023-02-09T07:41:08.977Z,71.63
2023-02-09T07:42:11.003Z,70.44
2023-02-09T07:43:28.043Z,70.24
2023-02-09T07:44:30.860Z,68.84
2023-02-09T07:45:33.430Z,68.15
2023-02-09T07:46:37.310Z,67.77
2023-02-09T07:47:39.571Z,66.79
2023-02-09T07:48:42.154Z,66.33
2023-02-09T07:49:44.575Z,67.91
2023-02-09T07:50:50.681Z,67.33
2023-02-09T07:51:53.690Z,67.48
2023-02-09T07:52:56.636Z,67.94
2023-02-09T07:54:00.973Z,68.78
2023-02-09T07:55:04.230Z,68.80
2023-02-09T07:56:08.018Z,67.67
2023-02-09T07:57:13.804Z,67.99
2023-02-09T07:58:18.921Z,70.23
2023-02-09T07:59:21.285Z,71.00
2023-02-09T08:00:24.952Z,70.07
2023-02-09T08:01:27.070Z,69.13
2023-02-09T08:02:33.054Z,69.76
2023-02-09T08:03:37.465Z,70.21
2023-02-09T08:04:39.967Z,68.68
2023-02-09T08:05:46.165Z,68.51
2023-02-09T08:06:48.517Z,68.75
2023-02-09T08:07:50.748Z,67.42
2023-02-09T08:08:53.337Z,67.20
2023-02-09T08:09:56.397Z,67.52
2023-02-09T08:11:01.324Z,66.96
2023-02-09T08:12:08.240Z,66.37
2023-02-09T08:13:11.659Z,67.13
2023-02-09T08:14:17.618Z,66.96
2023-02-09T08:15:22.269Z,67.58
2023-02-09T08:16:29.347Z,66.62
2023-02-09T08:17:32.217Z,67.21
2023-02-09T08:18:39.827Z,68.28
2023-02-09T08:19:42.833Z,68.69
2023-02-09T08:20:47.956Z,68.32
2023-02-09T08:21:51.365Z,68.78
2023-02-09T08:22:56.104Z,68.32
2023-02-09T08:24:00.687Z,67.89
2023-02-09T08:25:04.631Z,67.96
2023-02-09T08:26:10.492Z,68.42
2023-02-09T08:27:13.264Z,68.52
2023-02-09T08:28:16.417Z,68.65
2023-02-09T08:29:23.809Z,67.34
2023-02-09T08:30:26.309Z,67.38
2023-02-09T08:31:28.708Z,66.19
2023-02-09T08:32:31.333Z,65.99
2023-02-09T08:33:33.919Z,66.09
2023-02-09T08:34:36.997Z,66.97
2023-02-09T08:35:39.339Z,67.87
2023-02-09T08:36:41.761Z,67.38
2023-02-09T08:37:45.113Z,67.54
2023-02-09T08:38:50.123Z,67.75
2023-02-09T08:39:52.397Z,67.63
2023-02-09T08:40:55.238Z,66.94
2023-02-09T08:41:57.247Z,67.09
2023-02-09T08:42:59.849Z,66.57
2023-02-09T08:44:03.418Z,65.98
2023-02-09T08:45:08.422Z,66.24
2023-02-09T08:46:14.268Z,66.55
2023-02-09T08:47:18.767Z,67.19
2023-02-09T08:48:22.635Z,67.44
2023-02-09T08:49:27.649Z,66.76
2023-02-09T08:50:30.826Z,68.61
2023-02-09T08:51:34.397Z,68.26
2023-02-09T08:52:36.864Z,66.13
2023-02-09T08:53:40.287Z,67.25
2023-02-09T08:54:43.845Z,65.71
2023-02-09T08:55:46.615Z,65.50
2023-02-09T08:56:49.727Z,65.35
2023-02-09T08:57:52.486Z,65.44
2023-02-09T08:58:55.302Z,65.12
2023-02-09T08:59:58.472Z,66.17
2023-02-09T09:01:01.658Z,66.75
2023-02-09T09:02:04.041Z,66.97
2023-02-09T09:03:08.573Z,67.94
2023-02-09T09:04:19.957Z,66.30
2023-02-09T09:05:22.892Z,67.54
2023-02-09T09:06:26.951Z,67.42
2023-02-09T09:07:30.229Z,65.53
2023-02-09T09:08:37.380Z,64.71
2023-02-09T09:09:43.777Z,64.98
2023-02-09T09:10:49.497Z,65.80
2023-02-09T09:11:53.216Z,65.58
2023-02-09T09:12:56.458Z,65.62
2023-02-09T09:13:59.604Z,65.84
2023-02-09T09:15:03.280Z,68.79
2023-02-09T09:16:06.784Z,68.62
2023-02-09T09:17:09.255Z,66.85
2023-02-09T09:18:12.732Z,64.89
2023-02-09T09:19:16.347Z,64.17
2023-02-09T09:20:20.325Z,64.65
2023-02-09T09:21:23.828Z,65.12
2023-02-09T09:22:33.570Z,65.95
2023-02-09T09:23:38.936Z,66.67
2023-02-09T09:24:41.765Z,67.11
2023-02-09T09:25:45.215Z,66.70
2023-02-09T09:26:48.718Z,67.81
2023-02-09T09:27:51.464Z,66.97
2023-02-09T09:28:57.953Z,67.75
2023-02-09T09:30:05.532Z,65.12
2023-02-09T09:31:14.943Z,64.29
2023-02-09T09:32:18.381Z,63.62
2023-02-09T09:33:21.566Z,63.73
2023-02-09T09:34:24.206Z,63.18
2023-02-09T09:35:27.497Z,64.71
2023-02-09T09:36:31.326Z,63.94
2023-02-09T09:37:35.287Z,64.21
2023-02-09T09:38:39.930Z,65.84
2023-02-09T09:40:00.334Z,66.50
2023-02-09T09:41:09.851Z,66.06
2023-02-09T09:42:36.607Z,64.45
2023-02-09T09:43:41.774Z,64.31
2023-02-09T09:44:47.498Z,64.28
2023-02-09T09:45:52.603Z,64.35
2023-02-09T09:47:07.952Z,68.16
2023-02-09T09:48:27.348Z,65.16
2023-02-09T09:53:09.010Z,66.24
2023-02-09T09:54:21.198Z,65.03
2023-02-09T09:55:26.817Z,69.28
2023-02-09T09:56:31.245Z,67.10
2023-02-09T09:57:36.912Z,65.95
2023-02-09T09:58:42.321Z,64.52
2023-02-09T09:59:45.983Z,66.49
2023-02-09T10:00:50.642Z,66.24
2023-02-09T10:01:55.868Z,70.32
2023-02-09T10:03:00.341Z,66.39
2023-02-09T10:04:09.019Z,69.86
2023-02-09T10:05:28.459Z,66.22
2023-02-09T10:06:33.679Z,63.54
2023-02-09T10:07:39.889Z,63.21
2023-02-09T10:08:48.686Z,62.96
2023-02-09T10:09:57.323Z,62.87
2023-02-09T10:11:12.407Z,63.29
2023-02-09T10:12:41.291Z,66.57
2023-02-09T10:13:50.929Z,64.40
2023-02-09T10:14:53.138Z,62.06
2023-02-09T10:15:57.089Z,61.44
2023-02-09T10:16:59.780Z,62.12
2023-02-09T10:18:03.174Z,61.91
2023-02-09T10:19:20.757Z,62.17
2023-02-09T10:20:53.632Z,62.22
2023-02-09T10:21:56.908Z,61.74
2023-02-09T10:22:59.507Z,61.53
2023-02-09T10:24:09.424Z,61.85
2023-02-09T10:27:16.301Z,61.72
2023-02-09T10:28:28.932Z,61.03
2023-02-09T10:29:33.034Z,61.21
2023-02-09T10:30:35.570Z,64.05
2023-02-09T10:31:43.856Z,63.13
2023-02-09T10:32:46.399Z,61.49
2023-02-09T10:35:04.927Z,61.49
2023-02-09T10:36:24.158Z,59.78
2023-02-09T10:37:39.414Z,59.48
2023-02-09T10:38:42.597Z,59.44
2023-02-09T10:39:48.538Z,58.99
2023-02-09T10:40:51.528Z,59.24
2023-02-09T10:41:56.815Z,59.76
2023-02-09T10:43:02.354Z,60.22
2023-02-09T10:44:17.726Z,60.53
2023-02-09T10:45:29.924Z,60.15
2023-02-09T10:46:33.132Z,59.54
2023-02-09T10:47:35.239Z,59.66
2023-02-09T10:48:43.166Z,59.85
2023-02-09T10:50:07.644Z,59.98
2023-02-09T10:52:36.038Z,59.70
2023-02-09T10:53:57.191Z,59.40
2023-02-09T10:57:30.382Z,60.41
2023-02-09T10:58:35.789Z,61.70
2023-02-09T10:59:40.699Z,61.14
2023-02-09T11:01:09.505Z,61.89
2023-02-09T11:02:32.731Z,60.62
2023-02-09T11:03:37.225Z,60.69
2023-02-09T11:04:40.865Z,58.22
2023-02-09T11:05:47.141Z,59.20
2023-02-09T11:06:58.501Z,58.97
2023-02-09T11:08:22.796Z,58.75
2023-02-09T11:09:36.750Z,59.68
2023-02-09T11:10:43.485Z,58.00
2023-02-09T11:11:45.945Z,57.76
2023-02-09T11:12:49.192Z,57.62
2023-02-09T11:13:51.434Z,57.97
2023-02-09T11:14:54.487Z,57.34
2023-02-09T11:16:00.291Z,57.37
2023-02-09T11:17:18.568Z,57.03
2023-02-09T11:18:29.036Z,57.37
2023-02-09T11:20:01.845Z,57.27
2023-02-09T11:21:43.991Z,57.77
2023-02-09T11:22:56.203Z,58.43
2023-02-09T11:24:08.395Z,57.22
2023-02-09T11:25:38.873Z,57.05
2023-02-09T11:26:45.231Z,57.24
2023-02-09T11:28:08.400Z,58.50
2023-02-09T11:29:17.212Z,59.53
2023-02-09T11:30:42.790Z,58.72
2023-02-09T11:31:55.220Z,57.53
2023-02-09T11:33:08.985Z,56.89
2023-02-09T11:34:35.602Z,56.61
2023-02-09T11:35:53.643Z,56.37
2023-02-09T11:37:11.954Z,56.31
2023-02-09T11:38:17.598Z,56.46
2023-02-09T11:39:23.405Z,56.92
2023-02-09T11:40:42.924Z,57.16
2023-02-09T11:42:07.313Z,57.11
2023-02-09T11:43:34.781Z,57.42
2023-02-09T11:44:40.629Z,57.13
2023-02-09T11:45:49.611Z,56.92
2023-02-09T11:46:56.663Z,56.53
2023-02-09T11:48:14.178Z,56.52
2023-02-09T11:49:21.102Z,56.13
2023-02-09T11:50:43.906Z,57.19
2023-02-09T11:51:51.051Z,57.30
2023-02-09T11:52:57.090Z,58.08
2023-02-09T11:54:27.573Z,57.59
2023-02-09T11:55:43.760Z,56.21
2023-02-09T11:56:53.758Z,56.79
2023-02-09T11:58:03.475Z,60.08
2023-02-09T11:59:23.940Z,60.09
2023-02-09T12:00:30.914Z,59.74
2023-02-09T12:02:09.943Z,57.91
2023-02-09T12:03:13.340Z,56.44
2023-02-09T12:04:20.027Z,56.09
2023-02-09T12:05:25.775Z,56.39
2023-02-09T12:06:42.126Z,55.66
2023-02-09T12:10:00.236Z,55.88
2023-02-09T12:11:21.555Z,55.78
2023-02-09T12:12:42.415Z,56.91
2023-02-09T12:13:53.478Z,56.48
2023-02-09T12:15:08.057Z,55.40
2023-02-09T12:16:18.928Z,54.64
2023-02-09T12:17:28.385Z,55.32
2023-02-09T12:18:34.745Z,54.87
2023-02-09T12:19:41.928Z,55.26
2023-02-09T12:21:00.760Z,54.41
2023-02-09T12:22:33.699Z,54.25
2023-02-09T12:23:43.022Z,55.40
2023-02-09T12:24:49.320Z,53.50
2023-02-09T12:26:01.406Z,54.22
2023-02-09T12:27:07.346Z,53.70
2023-02-09T12:28:16.670Z,54.26
2023-02-09T12:29:31.861Z,53.87
2023-02-09T12:30:45.303Z,55.63
2023-02-09T12:32:08.985Z,54.02
2023-02-09T12:33:28.142Z,53.04
2023-02-09T12:34:52.191Z,54.83
2023-02-09T12:36:13.959Z,54.78
2023-02-09T12:37:27.557Z,55.54
2023-02-09T12:38:56.461Z,53.83
2023-02-09T12:40:17.159Z,55.30
2023-02-09T12:41:26.861Z,53.24
2023-02-09T12:42:41.634Z,53.66
2023-02-09T12:43:44.928Z,54.95
2023-02-09T12:44:55.632Z,54.63
2023-02-09T12:46:29.663Z,53.03
2023-02-09T12:47:42.597Z,52.69
2023-02-09T12:48:55.531Z,53.34
2023-02-09T12:50:04.452Z,54.07
2023-02-09T12:51:10.884Z,53.50
2023-02-09T12:52:16.720Z,54.89
2023-02-09T12:53:27.107Z,55.38
2023-02-09T12:54:56.266Z,53.53
2023-02-09T12:56:06.026Z,52.38
2023-02-09T12:57:18.800Z,52.92
2023-02-09T12:58:46.303Z,52.83
2023-02-09T12:59:58.608Z,52.72
2023-02-09T13:01:03.353Z,54.46
2023-02-09T13:02:10.472Z,55.09
2023-02-09T13:03:17.031Z,53.07
2023-02-09T13:04:20.506Z,54.00
2023-02-09T13:06:50.317Z,52.62
2023-02-09T13:08:08.126Z,52.58
2023-02-09T13:09:18.544Z,54.29
2023-02-09T13:10:40.555Z,55.43
2023-02-09T13:11:58.354Z,52.97
2023-02-09T13:13:13.036Z,52.84
2023-02-09T13:14:18.042Z,52.57
2023-02-09T13:15:22.417Z,52.95
2023-02-09T13:16:28.458Z,51.63
2023-02-09T13:17:34.934Z,52.83
2023-02-09T13:18:50.104Z,53.72
2023-02-09T13:20:05.017Z,53.92
2023-02-09T13:21:29.128Z,53.73
2023-02-09T13:22:51.581Z,53.99
2023-02-09T13:24:13.222Z,52.82
2023-02-09T13:25:19.541Z,53.06
2023-02-09T13:26:27.034Z,51.78
2023-02-09T13:27:29.632Z,50.46
2023-02-09T13:28:32.284Z,50.71
2023-02-09T13:29:35.105Z,49.78
2023-02-09T13:30:37.883Z,50.27
2023-02-09T13:31:43.022Z,50.12
2023-02-09T13:32:48.997Z,50.56
2023-02-09T13:33:54.833Z,50.62
2023-02-09T13:35:04.976Z,51.64
2023-02-09T13:36:33.036Z,50.90
2023-02-09T13:37:51.202Z,50.05
2023-02-09T13:38:53.781Z,50.86
2023-02-09T13:40:03.242Z,49.64
2023-02-09T13:41:08.389Z,50.38
2023-02-09T13:42:13.789Z,50.87
2023-02-09T13:43:20.432Z,51.75
2023-02-09T13:44:31.436Z,50.76
2023-02-09T13:45:33.676Z,52.59
2023-02-09T13:46:38.960Z,50.06
2023-02-09T13:47:43.380Z,51.06
2023-02-09T13:48:46.142Z,52.05
2023-02-09T13:50:00.292Z,52.08
2023-02-09T13:51:06.394Z,52.37
2023-02-09T13:52:13.992Z,52.74
2023-02-09T13:53:22.785Z,51.19
2023-02-09T13:54:25.712Z,52.16
2023-02-09T13:55:31.503Z,51.35
2023-02-09T13:56:36.787Z,51.81
2023-02-09T13:57:42.644Z,52.45
2023-02-09T13:58:47.922Z,53.00
2023-02-09T13:59:52.047Z,52.58
2023-02-09T14:01:17.361Z,53.30
2023-02-09T14:02:23.793Z,52.96
2023-02-09T14:03:29.840Z,51.89
2023-02-09T14:04:34.364Z,51.12
2023-02-09T14:05:43.560Z,50.45
2023-02-09T14:06:53.570Z,52.48
2023-02-09T14:07:56.654Z,51.70
2023-02-09T14:09:01.724Z,52.58
2023-02-09T14:11:42.727Z,52.75
2023-02-09T14:12:55.990Z,50.72
2023-02-09T14:14:03.301Z,51.61
2023-02-09T14:15:28.318Z,53.28
2023-02-09T14:16:39.024Z,52.89
2023-02-09T14:17:38.551Z,52.95
2023-02-09T14:18:47.717Z,52.55
2023-02-09T14:19:53.945Z,52.12
2023-02-09T14:21:13.198Z,51.19
2023-02-09T14:22:43.046Z,52.66
2023-02-09T14:24:00.784Z,53.41
2023-02-09T14:25:15.204Z,52.07
2023-02-09T14:26:25.196Z,52.27
2023-02-09T14:27:32.433Z,54.16
2023-02-09T14:28:37.032Z,52.54
2023-02-09T14:29:43.341Z,53.68
2023-02-09T14:30:50.822Z,53.51
2023-02-09T14:31:58.432Z,53.56
2023-02-09T14:33:02.820Z,54.46
2023-02-09T14:34:04.904Z,54.80
2023-02-09T14:35:19.652Z,55.33
2023-02-09T14:36:34.967Z,54.32
2023-02-09T14:37:38.256Z,54.32
2023-02-09T14:38:47.148Z,55.47